Time;durP1;ratioP1;P1;durP2;ratioP2;P2;SDS_P1;SDS_P2;PMS_P1;PMS_P2;Temp;Humidity;BMP_temperature;BMP_pressure;BME280_temperature;BME280_humidity;BME280_pressure;Samples;Min_cycle;Max_cycle;Signal;HPM_P1;HPM_P2
2023/06/27 00:02:23;;;;;;;8.40;8.00;;;23.00;47.10;;;;;;5020196;28;20268;-89
2023/06/27 00:04:49;;;;;;;8.23;7.72;;;22.90;46.70;;;;;;5019715;28;20654;-88
2023/06/27 00:07:15;;;;;;;8.13;7.57;;;23.00;45.10;;;;;;5020376;28;20200;-88
2023/06/27 00:09:40;;;;;;;8.43;7.85;;;23.20;44.80;;;;;;5019514;28;20178;-89
2023/06/27 00:12:09;;;;;;;8.48;7.88;;;23.20;44.70;;;;;;5021004;28;20394;-87
2023/06/27 00:14:37;;;;;;;9.13;8.48;;;23.40;44.50;;;;;;5020207;28;20202;-87
2023/06/27 00:17:10;;;;;;;8.65;8.15;;;23.50;44.20;;;;;;5019600;28;20248;-86
2023/06/27 00:19:35;;;;;;;8.65;8.10;;;23.50;44.40;;;;;;5038717;28;20235;-87
2023/06/27 00:22:04;;;;;;;9.27;8.77;;;23.50;45.50;;;;;;5041278;28;20185;-90
2023/06/27 00:24:29;;;;;;;9.30;8.57;;;23.60;45.70;;;;;;5040514;28;20192;-85
2023/06/27 00:26:55;;;;;;;9.73;8.98;;;23.50;45.70;;;;;;5040453;28;20688;-87
2023/06/27 00:29:21;;;;;;;8.95;8.32;;;23.40;45.40;;;;;;5039464;28;20677;-88
2023/06/27 00:31:46;;;;;;;8.68;8.18;;;23.30;46.20;;;;;;5039337;28;20792;-88
2023/06/27 00:34:12;;;;;;;8.98;8.38;;;23.20;46.20;;;;;;5038915;28;20208;-89
2023/06/27 00:36:37;;;;;;;8.48;7.95;;;23.20;46.40;;;;;;5038623;28;20197;-88
2023/06/27 00:39:03;;;;;;;9.20;8.55;;;23.30;46.80;;;;;;5024254;28;20186;-87
2023/06/27 00:41:29;;;;;;;8.75;8.25;;;23.30;46.80;;;;;;5021433;28;20269;-86
2023/06/27 00:43:56;;;;;;;9.25;8.75;;;23.40;46.40;;;;;;5048097;28;20199;-90
2023/06/27 00:46:39;;;;;;;8.02;7.55;;;23.30;47.40;;;;;;5060429;28;20200;-88
2023/06/27 00:49:10;;;;;;;8.18;7.20;;;23.20;49.50;;;;;;5029864;28;20284;-89
2023/06/27 00:51:37;;;;;;;8.40;7.80;;;23.20;49.30;;;;;;5022638;28;20200;-88
2023/06/27 00:54:03;;;;;;;7.38;6.78;;;23.20;48.10;;;;;;5023331;28;20165;-89
2023/06/27 00:56:29;;;;;;;8.77;8.18;;;23.20;49.70;;;;;;5018761;28;20198;-88
2023/06/27 00:58:58;;;;;;;8.77;8.18;;;23.30;49.20;;;;;;5020103;28;20212;-89
2023/06/27 01:01:25;;;;;;;7.95;7.35;;;23.30;48.20;;;;;;5021878;28;20611;-87
2023/06/27 01:03:51;;;;;;;9.45;8.73;;;23.40;48.90;;;;;;5021565;28;20186;-88
2023/06/27 01:06:30;;;;;;;9.00;8.40;;;23.40;47.10;;;;;;5020212;28;20292;-85
2023/06/27 01:09:03;;;;;;;9.02;8.32;;;23.40;46.80;;;;;;5033673;28;20666;-87
2023/06/27 01:11:37;;;;;;;9.68;9.10;;;23.50;46.90;;;;;;5037757;28;20197;-89
2023/06/27 01:14:04;;;;;;;9.80;9.15;;;23.40;46.70;;;;;;5036572;28;20219;-87
2023/06/27 01:16:31;;;;;;;9.85;9.15;;;23.30;45.50;;;;;;5037476;28;20201;-88
2023/06/27 01:18:58;;;;;;;9.55;8.93;;;23.40;44.60;;;;;;5038548;28;20201;-88
2023/06/27 01:21:27;;;;;;;8.60;8.20;;;23.50;46.00;;;;;;5039792;28;20236;-88
2023/06/27 01:23:55;;;;;;;9.45;8.75;;;23.20;49.40;;;;;;5038293;28;20310;-86
2023/06/27 01:26:21;;;;;;;9.48;8.77;;;23.20;45.20;;;;;;5038832;28;20258;-88
2023/06/27 01:28:47;;;;;;;10.00;9.15;;;23.20;42.60;;;;;;5037954;28;20180;-86
2023/06/27 01:31:46;;;;;;;8.55;8.07;;;23.30;46.60;;;;;;5038238;28;20192;-87
2023/06/27 01:34:18;;;;;;;9.27;8.48;;;23.30;47.50;;;;;;5039156;28;20169;-87
2023/06/27 01:36:43;;;;;;;9.18;8.68;;;23.30;44.90;;;;;;5033093;28;20194;-89
2023/06/27 01:39:18;;;;;;;9.07;8.57;;;23.20;42.90;;;;;;5037476;28;20196;-87
2023/06/27 01:41:48;;;;;;;9.88;9.10;;;23.20;42.90;;;;;;5046558;28;20164;-88
2023/06/27 01:44:15;;;;;;;8.95;8.45;;;23.20;42.50;;;;;;5054091;28;20177;-88
2023/06/27 01:46:42;;;;;;;9.43;8.93;;;23.20;44.60;;;;;;5054689;28;20196;-86
2023/06/27 01:49:09;;;;;;;9.68;8.93;;;23.10;43.30;;;;;;5053484;28;20253;-88
2023/06/27 01:51:34;;;;;;;9.00;8.43;;;23.00;43.20;;;;;;5042387;28;20267;-87
2023/06/27 01:54:00;;;;;;;8.20;7.60;;;22.80;46.50;;;;;;5014700;28;20174;-88
2023/06/27 01:56:27;;;;;;;8.35;7.93;;;22.90;47.40;;;;;;5016125;28;20213;-87
2023/06/27 01:58:53;;;;;;;8.90;8.27;;;23.00;45.00;;;;;;5018560;28;20211;-87
2023/06/27 02:01:18;;;;;;;8.70;8.10;;;23.10;45.50;;;;;;5018469;28;20205;-88
2023/06/27 02:03:44;;;;;;;8.57;7.97;;;23.10;45.40;;;;;;5016342;28;20197;-87
2023/06/27 02:06:09;;;;;;;7.45;6.95;;;23.00;46.30;;;;;;5017662;28;20279;-88
2023/06/27 02:08:35;;;;;;;7.43;6.93;;;23.00;49.80;;;;;;5017732;28;20231;-86
2023/06/27 02:11:01;;;;;;;7.20;6.70;;;22.80;51.40;;;;;;5019110;28;20809;-87
2023/06/27 02:13:26;;;;;;;6.63;6.15;;;22.70;50.20;;;;;;5037801;28;20264;-89
2023/06/27 02:15:52;;;;;;;5.90;5.50;;;22.70;51.20;;;;;;5037837;28;20200;-88
2023/06/27 02:18:17;;;;;;;6.68;6.20;;;22.70;52.10;;;;;;5036884;28;20177;-90
2023/06/27 02:20:43;;;;;;;6.32;5.93;;;22.70;51.60;;;;;;5036973;28;20189;-87
2023/06/27 02:23:09;;;;;;;7.72;6.90;;;22.70;50.90;;;;;;5036104;28;20192;-86
2023/06/27 02:25:34;;;;;;;6.85;6.45;;;22.70;50.40;;;;;;5036721;28;20192;-87
2023/06/27 02:28:00;;;;;;;8.15;7.50;;;22.70;51.50;;;;;;5034452;28;20185;-87
2023/06/27 02:30:26;;;;;;;8.90;8.30;;;22.60;50.00;;;;;;5037136;28;20231;-88
2023/06/27 02:32:51;;;;;;;7.70;7.20;;;22.60;48.10;;;;;;5036645;28;20195;-88
2023/06/27 02:35:17;;;;;;;7.28;6.57;;;22.60;49.50;;;;;;5036727;28;20200;-89
2023/06/27 02:37:43;;;;;;;6.85;6.45;;;22.50;51.00;;;;;;5044648;28;20667;-88
2023/06/27 02:40:09;;;;;;;7.15;6.75;;;22.50;50.70;;;;;;5034538;28;20165;-89
2023/06/27 02:42:35;;;;;;;6.72;6.22;;;22.60;50.30;;;;;;5034557;28;20239;-87
2023/06/27 02:45:00;;;;;;;7.20;6.70;;;22.50;50.50;;;;;;5033789;28;20181;-87
2023/06/27 02:47:26;;;;;;;6.65;6.18;;;22.50;50.40;;;;;;5034958;28;20656;-89
2023/06/27 02:49:51;;;;;;;6.45;5.85;;;22.50;51.10;;;;;;5034117;28;20602;-88
2023/06/27 02:52:17;;;;;;;6.63;6.03;;;22.40;52.10;;;;;;5035340;28;20246;-90
2023/06/27 02:54:43;;;;;;;7.15;6.65;;;22.40;51.10;;;;;;5034249;28;20232;-87
2023/06/27 02:57:10;;;;;;;7.15;6.63;;;22.40;50.10;;;;;;5020322;28;20197;-88
2023/06/27 02:59:37;;;;;;;7.82;7.20;;;22.40;50.10;;;;;;5020018;28;20197;-89
2023/06/27 03:02:02;;;;;;;8.15;7.55;;;22.40;49.90;;;;;;5019696;28;20324;-89
2023/06/27 03:04:28;;;;;;;16.13;6.90;;;22.40;49.40;;;;;;5020714;28;20652;-87
2023/06/27 03:06:54;;;;;;;8.05;6.05;;;22.40;52.10;;;;;;5038666;28;20232;-89
2023/06/27 03:09:19;;;;;;;8.40;5.95;;;22.20;52.30;;;;;;5040406;28;20289;-88
2023/06/27 03:11:45;;;;;;;8.23;5.95;;;22.20;52.20;;;;;;5040712;28;20197;-87
2023/06/27 03:14:11;;;;;;;6.47;5.72;;;22.20;52.50;;;;;;5039817;28;20177;-87
2023/06/27 03:16:37;;;;;;;8.98;6.40;;;22.00;52.40;;;;;;5040265;28;20243;-89
2023/06/27 03:19:02;;;;;;;11.13;6.20;;;22.00;52.60;;;;;;5040681;28;20173;-87
2023/06/27 03:21:28;;;;;;;6.43;5.93;;;22.10;52.30;;;;;;5040102;28;20180;-87
2023/06/27 03:23:53;;;;;;;6.55;5.97;;;22.10;51.90;;;;;;5033099;28;20200;-90
2023/06/27 03:26:23;;;;;;;6.72;6.22;;;22.10;51.60;;;;;;5019673;28;20204;-88
2023/06/27 03:28:48;;;;;;;5.70;5.40;;;22.20;50.90;;;;;;5020973;28;20657;-87
2023/06/27 03:31:14;;;;;;;6.25;5.78;;;22.10;53.10;;;;;;5028741;28;20212;-88
2023/06/27 03:33:40;;;;;;;5.70;5.30;;;21.70;53.90;;;;;;5052190;28;20184;-86
2023/06/27 03:36:06;;;;;;;6.78;6.18;;;21.70;54.00;;;;;;5038784;28;20189;-87
2023/06/27 03:38:32;;;;;;;5.43;5.03;;;21.50;54.40;;;;;;5027483;28;20648;-87
2023/06/27 03:40:57;;;;;;;5.53;4.85;;;21.60;53.50;;;;;;5016779;28;20378;-88
2023/06/27 03:43:24;;;;;;;5.18;4.88;;;21.50;54.60;;;;;;5016976;28;20267;-89
2023/06/27 03:45:50;;;;;;;5.68;5.13;;;21.50;54.00;;;;;;5035823;28;20227;-89
2023/06/27 03:48:15;;;;;;;5.88;5.38;;;21.50;53.60;;;;;;5035880;28;20644;-89
2023/06/27 03:50:41;;;;;;;6.45;5.38;;;21.50;53.90;;;;;;5040990;28;20197;-88
2023/06/27 03:53:07;;;;;;;5.70;5.20;;;21.50;54.20;;;;;;5039136;28;20193;-88
2023/06/27 03:55:33;;;;;;;8.80;5.88;;;21.60;55.10;;;;;;5021714;28;20193;-87
2023/06/27 03:57:59;;;;;;;8.48;5.63;;;21.50;55.30;;;;;;5022083;28;20176;-89
2023/06/27 04:00:25;;;;;;;7.50;5.38;;;21.50;56.00;;;;;;5022856;28;20244;-87
2023/06/27 04:02:51;;;;;;;7.82;5.75;;;21.60;55.80;;;;;;5019988;28;20178;-89
2023/06/27 04:05:16;;;;;;;6.40;5.65;;;21.60;55.60;;;;;;5032630;28;20204;-87
2023/06/27 04:07:42;;;;;;;5.90;5.30;;;21.70;55.60;;;;;;5019108;28;20201;-87
2023/06/27 04:10:08;;;;;;;5.90;5.30;;;21.60;56.00;;;;;;5019135;28;20181;-88
2023/06/27 04:12:33;;;;;;;6.18;5.22;;;21.60;55.90;;;;;;5018364;28;20182;-89
2023/06/27 04:14:59;;;;;;;6.15;5.55;;;21.60;56.10;;;;;;5017466;28;20177;-88
2023/06/27 04:17:25;;;;;;;8.25;5.28;;;21.60;55.40;;;;;;5027597;28;20201;-86
2023/06/27 04:19:50;;;;;;;6.13;5.53;;;21.60;56.90;;;;;;5031201;28;20173;-86
2023/06/27 04:22:16;;;;;;;8.57;5.40;;;21.40;56.80;;;;;;5052015;28;20180;-86
2023/06/27 04:24:41;;;;;;;5.75;5.18;;;21.30;57.40;;;;;;5039471;28;20184;-87
2023/06/27 04:27:10;;;;;;;5.68;5.18;;;21.40;57.90;;;;;;5040775;28;20236;-88
2023/06/27 04:29:36;;;;;;;5.97;5.57;;;21.40;57.60;;;;;;5048997;28;20184;-86
2023/06/27 04:32:02;;;;;;;7.40;5.20;;;21.30;58.70;;;;;;5019253;28;20206;-85
2023/06/27 04:34:28;;;;;;;9.55;5.20;;;21.20;59.30;;;;;;5019489;28;20174;-86
2023/06/27 04:36:54;;;;;;;5.65;5.10;;;21.10;58.90;;;;;;5018974;28;20279;-87
2023/06/27 04:39:20;;;;;;;5.72;5.28;;;21.20;58.30;;;;;;5030861;28;20247;-87
2023/06/27 04:41:46;;;;;;;6.22;5.10;;;21.30;57.80;;;;;;5040630;28;20185;-86
2023/06/27 04:44:11;;;;;;;5.78;5.38;;;21.30;57.30;;;;;;5038206;28;20173;-88
2023/06/27 04:46:38;;;;;;;5.53;5.03;;;21.20;58.50;;;;;;5039902;28;20333;-86
2023/06/27 04:49:04;;;;;;;5.50;5.00;;;21.00;59.30;;;;;;5024400;28;20204;-87
2023/06/27 04:51:30;;;;;;;5.43;5.03;;;21.10;59.60;;;;;;5026206;28;20209;-89
2023/06/27 04:53:56;;;;;;;6.90;5.38;;;21.20;59.30;;;;;;5052394;28;20310;-86
2023/06/27 04:56:26;;;;;;;6.10;5.60;;;21.30;59.10;;;;;;5058517;28;20220;-86
2023/06/27 04:58:52;;;;;;;5.30;4.93;;;21.30;59.50;;;;;;5042975;28;20184;-87
2023/06/27 05:01:17;;;;;;;5.63;5.03;;;21.30;60.50;;;;;;5037883;28;20189;-86
2023/06/27 05:03:43;;;;;;;5.60;5.10;;;21.10;61.10;;;;;;5038808;28;20187;-85
2023/06/27 05:06:09;;;;;;;5.25;4.85;;;21.30;60.60;;;;;;5039280;28;20219;-85
2023/06/27 05:08:36;;;;;;;5.70;5.20;;;21.10;59.90;;;;;;5039517;28;20180;-87
2023/06/27 05:11:02;;;;;;;5.72;5.28;;;21.30;59.50;;;;;;5029229;28;20194;-86
2023/06/27 05:13:27;;;;;;;6.07;5.43;;;21.40;59.00;;;;;;5018592;28;20184;-86
2023/06/27 05:15:53;;;;;;;9.43;5.90;;;21.40;59.00;;;;;;5018700;28;20244;-86
2023/06/27 05:18:19;;;;;;;6.93;5.80;;;21.50;59.70;;;;;;5025593;28;20239;-86
2023/06/27 05:20:47;;;;;;;7.05;5.70;;;21.50;59.80;;;;;;5038099;28;20181;-85
2023/06/27 05:23:12;;;;;;;5.65;5.22;;;21.60;59.70;;;;;;5035265;28;20189;-86
2023/06/27 05:25:38;;;;;;;5.85;5.28;;;21.70;59.90;;;;;;5039572;28;20598;-86
2023/06/27 05:28:04;;;;;;;7.82;5.72;;;21.60;60.70;;;;;;5048590;28;20184;-85
2023/06/27 05:30:30;;;;;;;8.00;5.38;;;21.50;62.40;;;;;;5037043;28;20280;-87
2023/06/27 05:33:01;;;;;;;8.65;5.70;;;21.50;62.50;;;;;;5018135;28;20190;-85
2023/06/27 05:35:27;;;;;;;10.48;6.35;;;21.60;62.50;;;;;;5019006;28;20181;-85
2023/06/27 05:37:53;;;;;;;18.17;6.30;;;21.50;63.50;;;;;;5031101;28;20555;-87
2023/06/27 05:40:18;;;;;;;7.82;5.78;;;21.60;62.10;;;;;;5020672;28;20239;-87
2023/06/27 05:42:44;;;;;;;5.43;4.93;;;21.70;62.60;;;;;;5031561;28;20185;-87
2023/06/27 05:45:10;;;;;;;24.58;7.70;;;21.70;62.80;;;;;;5030331;28;20185;-85
2023/06/27 05:47:36;;;;;;;31.33;8.60;;;21.60;62.50;;;;;;5032004;28;20242;-88
2023/06/27 05:50:02;;;;;;;5.97;5.38;;;21.70;63.20;;;;;;5030562;28;20181;-86
2023/06/27 05:52:29;;;;;;;7.40;5.22;;;21.70;56.40;;;;;;5016694;28;20209;-85
2023/06/27 05:54:55;;;;;;;7.13;6.72;;;21.90;58.20;;;;;;5023607;28;20197;-87
2023/06/27 05:57:22;;;;;;;6.07;5.72;;;22.10;52.80;;;;;;5026499;28;20213;-86
2023/06/27 05:59:47;;;;;;;7.13;5.80;;;22.20;55.70;;;;;;5016838;28;20170;-85
2023/06/27 06:02:13;;;;;;;7.55;6.50;;;22.30;54.90;;;;;;5018084;28;20281;-86
2023/06/27 06:04:39;;;;;;;8.52;7.35;;;22.40;53.10;;;;;;5017497;28;20186;-88
2023/06/27 06:07:04;;;;;;;7.80;7.30;;;22.50;51.70;;;;;;5025262;28;20197;-86
2023/06/27 06:09:30;;;;;;;7.10;6.50;;;22.50;51.10;;;;;;5016516;28;20270;-86
2023/06/27 06:11:57;;;;;;;6.65;6.15;;;22.40;52.20;;;;;;5016908;28;20204;-86
2023/06/27 06:14:22;;;;;;;6.68;6.28;;;22.20;53.00;;;;;;5016534;28;20231;-88
2023/06/27 06:16:48;;;;;;;8.00;7.50;;;22.20;52.30;;;;;;5032128;28;20292;-88
2023/06/27 06:19:14;;;;;;;8.38;7.78;;;22.50;51.30;;;;;;5036114;28;20184;-87
2023/06/27 06:21:40;;;;;;;8.18;7.70;;;22.40;50.70;;;;;;5050667;28;20247;-86
2023/06/27 06:24:08;;;;;;;8.43;7.93;;;22.40;47.40;;;;;;5039625;28;20238;-87
2023/06/27 06:26:35;;;;;;;8.15;7.50;;;22.50;45.90;;;;;;5026190;28;20197;-87
2023/06/27 06:29:01;;;;;;;7.53;7.03;;;22.50;46.50;;;;;;5016603;28;20185;-87
2023/06/27 06:31:27;;;;;;;7.93;7.25;;;22.50;46.20;;;;;;5017396;28;20215;-87
2023/06/27 06:33:53;;;;;;;9.43;7.82;;;22.60;44.60;;;;;;5022311;28;20260;-86
2023/06/27 06:36:19;;;;;;;8.15;7.57;;;22.60;44.80;;;;;;5018798;28;20685;-87
2023/06/27 06:38:45;;;;;;;8.73;7.85;;;22.70;45.10;;;;;;5030433;28;20180;-86
2023/06/27 06:41:10;;;;;;;10.02;7.93;;;22.70;45.00;;;;;;5039931;28;20184;-87
2023/06/27 06:43:36;;;;;;;7.63;7.20;;;22.70;44.70;;;;;;5027660;28;20185;-86
2023/06/27 06:46:02;;;;;;;8.25;7.60;;;22.70;45.50;;;;;;5021750;28;20197;-88
2023/06/27 06:48:28;;;;;;;8.10;7.47;;;22.80;45.40;;;;;;5020829;28;20686;-86
2023/06/27 06:50:54;;;;;;;8.30;7.63;;;22.70;45.70;;;;;;5021036;28;20601;-87
2023/06/27 06:53:21;;;;;;;8.43;7.93;;;22.80;44.80;;;;;;5031722;28;20185;-87
2023/06/27 06:55:47;;;;;;;7.63;7.13;;;22.90;45.10;;;;;;5040386;28;20169;-87
2023/06/27 06:58:12;;;;;;;7.85;7.45;;;23.00;44.40;;;;;;5040621;28;20211;-87
2023/06/27 07:00:38;;;;;;;7.97;7.57;;;22.90;45.10;;;;;;5039115;28;20188;-87
2023/06/27 07:03:08;;;;;;;8.88;8.18;;;22.80;43.80;;;;;;5040973;28;20209;-86
2023/06/27 07:05:37;;;;;;;8.70;8.00;;;22.90;43.30;;;;;;5041675;28;20185;-87
2023/06/27 07:08:03;;;;;;;8.45;7.82;;;22.90;42.20;;;;;;5034729;28;20188;-88
2023/06/27 07:10:30;;;;;;;8.38;7.78;;;22.80;42.70;;;;;;5025660;28;20235;-89
2023/06/27 07:12:55;;;;;;;8.20;7.75;;;22.80;42.20;;;;;;5043312;28;20170;-88
2023/06/27 07:15:23;;;;;;;7.63;7.13;;;22.60;41.70;;;;;;5040703;28;20185;-88
2023/06/27 07:17:50;;;;;;;7.72;7.13;;;22.60;43.50;;;;;;5044011;28;20227;-87
2023/06/27 07:20:16;;;;;;;8.52;7.80;;;22.70;42.10;;;;;;5040330;28;20181;-87
2023/06/27 07:22:41;;;;;;;8.30;7.80;;;22.80;40.80;;;;;;5023928;28;20180;-90
2023/06/27 07:25:07;;;;;;;8.60;7.78;;;22.80;40.40;;;;;;5019263;28;20190;-87
2023/06/27 07:27:33;;;;;;;9.07;8.38;;;22.90;39.30;;;;;;5018934;28;20197;-87
2023/06/27 07:29:59;;;;;;;9.38;8.65;;;23.00;40.40;;;;;;5018011;28;20798;-88
2023/06/27 07:32:24;;;;;;;8.70;7.97;;;23.00;40.50;;;;;;5018460;28;20436;-87
2023/06/27 07:34:50;;;;;;;8.82;8.13;;;23.20;40.80;;;;;;5017247;28;20548;-87
2023/06/27 07:37:15;;;;;;;8.80;8.20;;;23.30;40.60;;;;;;5019867;28;20198;-88
2023/06/27 07:39:41;;;;;;;9.50;8.80;;;23.30;40.50;;;;;;5039381;28;20173;-87
2023/06/27 07:42:07;;;;;;;10.32;9.35;;;23.30;40.00;;;;;;5021895;28;20659;-87
2023/06/27 07:44:34;;;;;;;9.85;9.00;;;23.20;40.00;;;;;;5034390;28;20655;-88
2023/06/27 07:46:59;;;;;;;9.23;8.63;;;23.20;40.20;;;;;;5040006;28;20200;-86
2023/06/27 07:49:25;;;;;;;9.55;8.95;;;23.10;39.80;;;;;;5040066;28;20241;-86
2023/06/27 07:51:51;;;;;;;9.50;8.75;;;23.30;39.70;;;;;;5024156;28;20205;-85
2023/06/27 07:54:19;;;;;;;10.60;9.93;;;23.40;40.10;;;;;;5019820;28;20686;-87
2023/06/27 07:56:46;;;;;;;11.23;10.63;;;23.60;39.10;;;;;;5018349;28;20205;-87
2023/06/27 07:59:13;;;;;;;11.63;10.93;;;23.60;38.50;;;;;;5019441;28;20262;-87
2023/06/27 08:01:40;;;;;;;11.93;10.93;;;23.60;38.10;;;;;;5019291;28;20192;-89
2023/06/27 08:04:06;;;;;;;10.60;9.98;;;23.80;38.70;;;;;;5019299;28;20234;-87
2023/06/27 08:06:32;;;;;;;11.63;11.02;;;23.90;38.50;;;;;;5019276;28;20221;-87
2023/06/27 08:08:58;;;;;;;11.30;10.65;;;23.90;38.00;;;;;;5018395;28;20257;-87
2023/06/27 08:11:23;;;;;;;11.38;10.77;;;23.80;38.20;;;;;;5020003;28;20209;-87
2023/06/27 08:13:49;;;;;;;12.57;11.85;;;23.90;38.10;;;;;;5043969;28;20177;-87
2023/06/27 08:16:15;;;;;;;12.10;11.40;;;23.70;38.90;;;;;;5039990;28;20204;-86
2023/06/27 08:18:41;;;;;;;12.27;11.55;;;23.80;39.40;;;;;;5037839;28;20208;-87
2023/06/27 08:21:07;;;;;;;12.25;11.65;;;23.90;38.40;;;;;;5030262;28;20193;-88
2023/06/27 08:23:33;;;;;;;12.43;11.65;;;24.00;38.40;;;;;;5016467;28;20186;-87
2023/06/27 08:25:58;;;;;;;13.88;12.98;;;24.20;38.40;;;;;;5015491;28;20205;-87
2023/06/27 08:28:24;;;;;;;11.55;10.90;;;24.40;37.50;;;;;;5015958;28;20182;-87
2023/06/27 08:30:50;;;;;;;11.27;10.68;;;24.40;37.30;;;;;;5022287;28;20192;-87
2023/06/27 08:33:15;;;;;;;11.68;10.88;;;24.30;37.90;;;;;;5035582;28;20572;-87
2023/06/27 08:35:41;;;;;;;11.80;10.93;;;24.40;38.10;;;;;;5034911;28;20174;-88
2023/06/27 08:38:08;;;;;;;11.30;10.73;;;24.70;37.80;;;;;;5021287;28;20189;-85
2023/06/27 08:40:36;;;;;;;11.55;10.82;;;24.80;37.00;;;;;;5018809;28;20355;-85
2023/06/27 08:43:01;;;;;;;12.55;11.65;;;24.60;36.70;;;;;;5020236;28;20241;-84
2023/06/27 08:45:27;;;;;;;12.13;11.43;;;24.50;37.10;;;;;;5018630;28;20220;-83
2023/06/27 08:47:53;;;;;;;12.13;11.30;;;24.60;37.50;;;;;;5020092;28;20217;-84
2023/06/27 08:50:21;;;;;;;12.52;11.82;;;24.50;36.90;;;;;;5017792;28;20178;-86
2023/06/27 08:52:58;;;;;;;12.98;12.13;;;24.50;37.20;;;;;;5021081;28;20411;-86
2023/06/27 08:55:51;;;;;;;11.98;11.27;;;24.70;36.70;;;;;;5031121;28;20188;-83
2023/06/27 08:58:20;;;;;;;12.52;11.48;;;24.80;37.00;;;;;;5038004;28;20205;-85
2023/06/27 09:00:47;;;;;;;11.85;11.25;;;24.80;37.50;;;;;;5042744;28;20177;-86
2023/06/27 09:03:13;;;;;;;12.48;11.63;;;24.70;37.80;;;;;;5038181;28;20701;-86
2023/06/27 09:05:40;;;;;;;11.75;11.23;;;24.70;37.60;;;;;;5042655;28;20195;-85
2023/06/27 09:08:06;;;;;;;11.80;11.18;;;24.70;36.80;;;;;;5042328;28;20181;-84
2023/06/27 09:10:33;;;;;;;11.55;10.63;;;24.70;37.10;;;;;;5033587;28;20496;-86
2023/06/27 09:13:00;;;;;;;12.18;11.18;;;24.90;36.60;;;;;;5029728;28;20189;-85
2023/06/27 09:15:25;;;;;;;12.63;11.63;;;25.20;36.00;;;;;;5022979;28;20190;-85
2023/06/27 09:17:52;;;;;;;12.02;11.23;;;25.20;35.50;;;;;;5024148;28;20219;-85
2023/06/27 09:20:18;;;;;;;11.77;11.05;;;25.20;35.50;;;;;;5030285;28;20189;-84
2023/06/27 09:22:44;;;;;;;11.50;10.82;;;25.20;36.20;;;;;;5030190;28;20545;-85
2023/06/27 09:25:14;;;;;;;12.13;11.13;;;25.40;35.30;;;;;;5026192;28;20247;-82
2023/06/27 09:27:40;;;;;;;10.52;10.02;;;25.50;35.10;;;;;;5026798;28;20193;-83
2023/06/27 09:30:07;;;;;;;11.68;10.80;;;25.70;33.90;;;;;;5028003;28;20241;-82
2023/06/27 09:32:35;;;;;;;11.50;10.60;;;25.80;34.40;;;;;;5025911;28;20201;-83
2023/06/27 09:35:03;;;;;;;10.65;10.05;;;25.80;33.70;;;;;;5017162;28;20709;-82
2023/06/27 09:37:31;;;;;;;10.65;10.02;;;26.00;34.00;;;;;;5037291;28;20224;-86
2023/06/27 09:39:57;;;;;;;12.00;10.73;;;26.10;33.90;;;;;;5027264;28;20779;-83
2023/06/27 09:42:22;;;;;;;11.70;11.10;;;25.80;33.80;;;;;;5029214;28;20189;-83
2023/06/27 09:44:48;;;;;;;12.05;11.00;;;26.10;34.60;;;;;;5029892;28;20839;-82
2023/06/27 09:47:14;;;;;;;11.57;10.75;;;26.20;33.30;;;;;;5020568;28;20264;-82
2023/06/27 09:49:43;;;;;;;11.43;10.85;;;26.20;33.20;;;;;;5039144;28;20208;-81
2023/06/27 09:52:12;;;;;;;12.57;11.80;;;26.40;32.90;;;;;;5037774;28;20283;-83
2023/06/27 09:54:42;;;;;;;12.60;12.00;;;26.50;32.60;;;;;;5018774;28;20185;-81
2023/06/27 09:57:16;;;;;;;13.77;12.80;;;26.60;32.80;;;;;;5021291;28;20284;-84
2023/06/27 09:59:42;;;;;;;13.75;13.00;;;26.70;32.40;;;;;;5025824;28;20204;-85
2023/06/27 10:02:15;;;;;;;12.77;11.68;;;26.50;33.10;;;;;;5019437;28;20196;-85
2023/06/27 10:04:41;;;;;;;13.05;12.35;;;26.50;34.50;;;;;;5022498;28;20559;-84
2023/06/27 10:07:11;;;;;;;13.32;12.63;;;26.70;33.50;;;;;;5047087;28;20860;-84
2023/06/27 10:09:38;;;;;;;13.45;12.48;;;26.80;32.40;;;;;;5018154;28;20213;-81
2023/06/27 10:12:04;;;;;;;13.20;12.50;;;26.90;32.70;;;;;;5018989;28;20577;-83
2023/06/27 10:14:32;;;;;;;13.65;12.95;;;27.20;32.30;;;;;;5049895;28;20173;-84
2023/06/27 10:16:58;;;;;;;13.70;12.82;;;27.20;32.20;;;;;;5030426;28;20448;-83
2023/06/27 10:19:24;;;;;;;13.23;12.43;;;27.10;32.50;;;;;;5014185;28;20185;-84
2023/06/27 10:21:50;;;;;;;12.65;11.85;;;26.50;33.10;;;;;;5013142;28;20257;-86
2023/06/27 10:24:16;;;;;;;13.52;12.73;;;26.40;34.10;;;;;;5016164;28;20246;-85
2023/06/27 10:26:50;;;;;;;13.60;12.95;;;26.50;33.00;;;;;;5036424;28;20230;-86
2023/06/27 10:29:16;;;;;;;14.18;13.40;;;26.80;32.40;;;;;;5032820;28;20621;-85
2023/06/27 10:31:45;;;;;;;14.50;13.80;;;26.90;31.50;;;;;;5032722;28;20208;-87
2023/06/27 10:34:18;;;;;;;17.90;13.98;;;26.80;31.80;;;;;;5037338;28;20191;-85
2023/06/27 10:37:05;;;;;;;14.32;13.52;;;26.80;32.10;;;;;;5038912;28;20216;-85
2023/06/27 10:39:36;;;;;;;14.52;13.63;;;26.70;31.80;;;;;;5038070;28;20726;-85
2023/06/27 10:42:25;;;;;;;13.48;12.57;;;26.90;30.80;;;;;;5037716;28;20182;-86
2023/06/27 10:45:06;;;;;;;14.30;13.55;;;26.70;32.50;;;;;;5034648;28;20246;-84
2023/06/27 10:47:38;;;;;;;14.38;13.77;;;26.80;31.70;;;;;;5038058;28;20213;-86
2023/06/27 10:50:09;;;;;;;14.02;13.18;;;26.90;32.80;;;;;;5026946;28;20427;-86
2023/06/27 10:52:36;;;;;;;14.23;13.40;;;26.90;32.20;;;;;;5019168;28;20239;-86
2023/06/27 10:55:14;;;;;;;13.38;12.68;;;26.70;32.20;;;;;;5019427;28;20576;-86
2023/06/27 10:57:42;;;;;;;12.80;11.90;;;26.40;32.10;;;;;;5017744;28;20603;-86
2023/06/27 11:00:32;;;;;;;12.80;12.20;;;26.20;32.80;;;;;;5026479;28;20181;-85
2023/06/27 11:02:58;;;;;;;14.50;13.73;;;26.70;33.30;;;;;;5035830;28;20455;-86
2023/06/27 11:05:37;;;;;;;15.68;14.98;;;27.00;32.00;;;;;;5056255;28;20199;-86
2023/06/27 11:08:03;;;;;;;15.90;14.98;;;27.10;31.70;;;;;;5057130;28;20702;-85
2023/06/27 11:10:30;;;;;;;16.00;15.30;;;27.50;30.80;;;;;;5032054;28;20232;-84
2023/06/27 11:13:28;;;;;;;16.70;15.55;;;27.70;30.40;;;;;;5015841;28;20192;-88
2023/06/27 11:15:55;;;;;;;16.27;15.45;;;28.20;30.10;;;;;;5009598;28;20660;-90
2023/06/27 11:18:25;;;;;;;17.15;16.10;;;28.30;30.40;;;;;;5015340;28;20180;-88
2023/06/27 11:20:51;;;;;;;16.27;15.48;;;28.20;30.00;;;;;;5032873;28;20228;-90
2023/06/27 11:23:17;;;;;;;16.98;16.27;;;28.20;29.70;;;;;;5037817;28;20212;-89
2023/06/27 11:25:44;;;;;;;17.58;16.77;;;28.30;29.40;;;;;;5036686;28;20181;-88
2023/06/27 11:28:11;;;;;;;19.52;18.73;;;28.50;29.80;;;;;;5037004;28;20184;-90
2023/06/27 11:30:37;;;;;;;18.45;17.65;;;28.70;29.40;;;;;;5022593;28;20186;-88
2023/06/27 11:33:03;;;;;;;13.75;13.05;;;28.40;29.90;;;;;;5018360;28;20205;-86
2023/06/27 11:35:31;;;;;;;13.68;13.00;;;27.50;31.50;;;;;;5017589;28;20192;-90
2023/06/27 11:37:57;;;;;;;14.02;12.85;;;27.10;32.80;;;;;;5025847;28;20650;-89
2023/06/27 11:40:26;;;;;;;14.15;13.45;;;27.50;31.80;;;;;;5038072;28;20680;-89
2023/06/27 11:43:00;;;;;;;15.57;14.82;;;27.70;30.90;;;;;;5038556;28;20184;-90
2023/06/27 11:45:26;;;;;;;15.60;14.70;;;28.20;30.20;;;;;;5037648;28;20172;-88
2023/06/27 11:47:53;;;;;;;18.70;17.58;;;28.20;29.50;;;;;;5044117;28;20204;-90
2023/06/27 11:50:19;;;;;;;20.08;19.38;;;28.50;29.10;;;;;;5047292;28;20174;-88
2023/06/27 11:52:47;;;;;;;20.33;19.33;;;28.80;29.10;;;;;;5050062;28;20219;-89
2023/06/27 11:55:13;;;;;;;20.05;19.05;;;28.90;28.50;;;;;;5045124;28;20228;-89
2023/06/27 11:57:51;;;;;;;21.30;20.42;;;29.30;29.40;;;;;;5047989;28;20682;-90
2023/06/27 12:00:17;;;;;;;17.85;16.98;;;29.60;28.70;;;;;;5044321;28;20616;-90
2023/06/27 12:02:47;;;;;;;20.15;19.15;;;28.90;29.90;;;;;;5037574;28;20663;-88
2023/06/27 12:05:16;;;;;;;19.30;18.50;;;29.10;29.30;;;;;;5038244;28;20177;-90
2023/06/27 12:07:54;;;;;;;21.23;19.92;;;29.60;28.90;;;;;;5034558;28;20197;-88
2023/06/27 12:10:20;;;;;;;20.23;19.23;;;29.90;27.80;;;;;;5021774;28;20237;-90
2023/06/27 12:12:45;;;;;;;20.30;19.45;;;29.70;27.90;;;;;;5023059;28;20263;-87
2023/06/27 12:15:14;;;;;;;21.55;20.35;;;29.70;28.80;;;;;;5034582;28;20187;-90
2023/06/27 12:17:59;;;;;;;21.02;20.02;;;29.70;28.20;;;;;;5034981;28;20244;-92
2023/06/27 12:20:25;;;;;;;21.48;20.45;;;30.10;29.10;;;;;;5038210;28;20188;-88
2023/06/27 12:22:51;;;;;;;22.20;21.10;;;30.10;27.40;;;;;;5026933;28;20181;-91
2023/06/27 12:25:17;;;;;;;21.10;19.98;;;29.90;27.60;;;;;;5018236;28;20261;-88
2023/06/27 12:27:43;;;;;;;20.77;19.88;;;29.80;27.50;;;;;;5017032;28;20209;-88
2023/06/27 12:30:10;;;;;;;21.05;20.15;;;29.60;27.60;;;;;;5017921;28;20257;-89
2023/06/27 12:32:36;;;;;;;19.90;19.10;;;29.30;28.20;;;;;;5026547;28;20635;-90
2023/06/27 12:35:02;;;;;;;19.65;18.85;;;29.40;27.90;;;;;;5036843;28;20214;-90
2023/06/27 12:37:29;;;;;;;19.92;18.92;;;29.20;28.40;;;;;;5035881;28;20267;-91
2023/06/27 12:39:54;;;;;;;19.45;18.55;;;29.00;28.90;;;;;;5017781;28;20193;-87